createdAt,value
2023-04-09T00:03:56.736Z,102443.28
2023-04-09T00:09:18.822Z,102426.84
2023-04-09T00:14:40.781Z,102427.28
2023-04-09T00:20:02.837Z,102425.78
2023-04-09T00:25:24.894Z,102424.94
2023-04-09T00:30:46.838Z,102425.16
2023-04-09T00:36:08.814Z,102418.97
2023-04-09T00:41:30.731Z,102421.91
2023-04-09T00:46:54.620Z,102416.38
2023-04-09T00:52:16.613Z,102408.28
2023-04-09T00:57:38.476Z,102407.44
2023-04-09T01:03:01.223Z,102406.56
2023-04-09T01:09:12.012Z,102397.59
2023-04-09T01:14:57.232Z,102394.66
2023-04-09T01:20:35.749Z,102391.22
2023-04-09T01:26:16.323Z,102384.38
2023-04-09T01:31:39.901Z,102387.38
2023-04-09T01:37:04.257Z,102393.13
2023-04-09T01:42:26.636Z,102398.88
2023-04-09T01:47:48.559Z,102392.69
2023-04-09T01:53:11.052Z,102394.81
2023-04-09T01:58:34.494Z,102391.19
2023-04-09T02:04:04.376Z,102396.75
2023-04-09T02:09:29.852Z,102395.88
2023-04-09T02:14:52.754Z,102391.59
2023-04-09T02:20:20.540Z,102388.66
2023-04-09T02:25:42.606Z,102379.03
2023-04-09T02:31:04.618Z,102382.88
2023-04-09T02:36:28.437Z,102375.63
2023-04-09T02:41:50.496Z,102373.03
2023-04-09T02:47:12.600Z,102360.44
2023-04-09T02:52:34.429Z,102365.13
2023-04-09T02:57:56.427Z,102362.59
2023-04-09T03:03:18.427Z,102352.75
2023-04-09T03:08:40.350Z,102355.75
2023-04-09T03:14:02.225Z,102356.81
2023-04-09T03:19:24.499Z,102348.50
2023-04-09T03:24:46.372Z,102341.25
2023-04-09T03:30:08.722Z,102329.50
2023-04-09T03:35:30.674Z,102329.72
2023-04-09T03:40:52.605Z,102326.97
2023-04-09T03:46:15.929Z,102316.06
2023-04-09T03:51:37.879Z,102324.59
2023-04-09T03:56:59.706Z,102318.22
2023-04-09T04:02:21.901Z,102313.75
2023-04-09T04:07:44.233Z,102312.88
2023-04-09T04:13:09.425Z,102319.28
2023-04-09T04:18:31.278Z,102315.88
2023-04-09T04:23:53.201Z,102318.63
2023-04-09T04:29:15.045Z,102311.38
2023-04-09T04:34:36.857Z,102315.22
2023-04-09T04:39:58.762Z,102323.53
2023-04-09T04:45:20.915Z,102322.69
2023-04-09T04:50:42.778Z,102328.41
2023-04-09T04:56:04.914Z,102327.56
2023-04-09T05:01:26.817Z,102325.88
2023-04-09T05:06:48.828Z,102334.34
2023-04-09T05:12:10.917Z,102332.69
2023-04-09T05:17:32.779Z,102335.63
2023-04-09T05:22:54.586Z,102332.22
2023-04-09T05:28:17.165Z,102334.16
2023-04-09T05:33:42.875Z,102326.69
2023-04-09T05:39:04.623Z,102327.97
2023-04-09T05:44:26.707Z,102323.28
2023-04-09T05:49:48.800Z,102323.31
2023-04-09T05:55:10.829Z,102328.75
2023-04-09T06:05:54.464Z,102318.28
2023-04-09T06:11:16.983Z,102322.34
2023-04-09T06:16:38.889Z,102329.78
2023-04-09T06:22:00.690Z,102337.00
2023-04-09T06:27:23.072Z,102343.19
2023-04-09T06:32:54.273Z,102351.94
2023-04-09T06:38:19.486Z,102348.94
2023-04-09T06:43:41.422Z,102354.47
2023-04-09T06:49:03.420Z,102360.03
2023-04-09T06:54:25.571Z,102367.72
2023-04-09T06:59:47.390Z,102364.94
2023-04-09T07:05:09.868Z,102354.47
2023-04-09T07:10:31.747Z,102360.91
2023-04-09T07:15:53.652Z,102360.69
2023-04-09T07:21:15.569Z,102357.69
2023-04-09T07:26:37.520Z,102362.59
2023-04-09T07:32:01.469Z,102368.75
2023-04-09T07:37:23.620Z,102364.22
2023-04-09T07:42:45.471Z,102368.03
2023-04-09T07:48:09.580Z,102359.22
2023-04-09T07:53:31.619Z,102360.88
2023-04-09T07:58:53.687Z,102368.72
2023-04-09T08:04:16.106Z,102362.25
2023-04-09T08:09:38.485Z,102363.09
2023-04-09T08:15:00.650Z,102359.63
2023-04-09T08:20:22.599Z,102350.16
2023-04-09T08:25:45.037Z,102349.94
2023-04-09T08:31:06.919Z,102352.28
2023-04-09T08:36:29.202Z,102349.00
2023-04-09T08:41:52.863Z,102359.31
2023-04-09T08:47:15.179Z,102351.78
2023-04-09T08:52:37.660Z,102357.59
2023-04-09T08:57:59.631Z,102354.88
2023-04-09T09:03:21.654Z,102344.94
2023-04-09T09:08:43.669Z,102347.16
2023-04-09T09:14:10.514Z,102332.63
2023-04-09T09:19:36.769Z,102346.97
2023-04-09T09:24:59.268Z,102334.59
2023-04-09T09:30:26.961Z,102335.47
2023-04-09T09:35:54.674Z,102335.22
2023-04-09T09:41:18.762Z,102336.09
2023-04-09T09:46:42.778Z,102332.44
2023-04-09T09:52:10.160Z,102330.31
2023-04-09T09:57:34.773Z,102329.22
2023-04-09T10:03:08.733Z,102318.13
2023-04-09T10:08:34.376Z,102299.53
2023-04-09T10:14:00.379Z,102296.59
2023-04-09T10:19:22.811Z,102291.03
2023-04-09T10:24:46.027Z,102282.50
2023-04-09T10:30:10.929Z,102291.75
2023-04-09T10:35:32.911Z,102287.72
2023-04-09T10:40:55.057Z,102276.34
2023-04-09T10:46:30.995Z,102275.72
2023-04-09T10:52:14.214Z,102266.28
2023-04-09T10:57:36.138Z,102263.75
2023-04-09T11:03:04.925Z,102260.56
2023-04-09T11:08:31.840Z,102261.19
2023-04-09T11:13:59.432Z,102253.06
2023-04-09T11:19:21.683Z,102240.03
2023-04-09T11:24:44.661Z,102241.13
2023-04-09T11:30:07.327Z,102238.34
2023-04-09T11:35:29.766Z,102237.72
2023-04-09T11:40:58.016Z,102236.84
2023-04-09T11:46:21.774Z,102234.25
2023-04-09T11:51:43.902Z,102239.66
2023-04-09T11:57:09.197Z,102230.06
2023-04-09T12:02:34.954Z,102228.34
2023-04-09T12:08:08.350Z,102228.34
2023-04-09T12:13:33.934Z,102211.50
2023-04-09T12:18:56.112Z,102214.75
2023-04-09T12:24:19.700Z,102212.16
2023-04-09T12:29:41.905Z,102214.34
2023-04-09T12:35:04.621Z,102218.38
2023-04-09T12:40:27.152Z,102211.59
2023-04-09T12:45:49.127Z,102208.81
2023-04-09T12:51:11.744Z,102204.75
2023-04-09T12:56:33.576Z,102215.63
2023-04-09T13:01:55.591Z,102198.31
2023-04-09T13:07:19.459Z,102207.13
2023-04-09T13:12:41.374Z,102197.75
2023-04-09T13:18:03.737Z,102199.50
2023-04-09T13:23:25.885Z,102202.72
2023-04-09T13:28:47.760Z,102198.66
2023-04-09T13:34:09.622Z,102181.19
2023-04-09T13:39:31.528Z,102179.09
2023-04-09T13:44:53.978Z,102161.56
2023-04-09T13:50:15.984Z,102159.66
2023-04-09T13:55:39.800Z,102162.22
2023-04-09T14:01:02.934Z,102159.44
2023-04-09T14:06:25.081Z,102153.88
2023-04-09T14:11:47.042Z,102151.75
2023-04-09T14:17:08.889Z,102142.34
2023-04-09T14:22:31.506Z,102137.44
2023-04-09T14:27:53.318Z,102129.53
2023-04-09T14:33:15.646Z,102122.28
2023-04-09T14:38:37.612Z,102117.41
2023-04-09T14:43:59.450Z,102110.38
2023-04-09T14:49:21.787Z,102104.81
2023-04-09T14:54:43.694Z,102094.59
2023-04-09T15:00:08.187Z,102083.47
2023-04-09T15:05:30.114Z,102077.06
2023-04-09T15:10:51.944Z,102067.28
2023-04-09T15:16:33.634Z,102067.28
2023-04-09T15:21:56.607Z,102069.88
2023-04-09T15:27:18.742Z,102078.81
2023-04-09T15:32:40.657Z,102071.78
2023-04-09T15:38:02.533Z,102079.03
2023-04-09T15:43:24.369Z,102066.25
2023-04-09T15:48:46.487Z,102065.59
2023-04-09T15:54:08.396Z,102062.63
2023-04-09T15:59:30.277Z,102069.88
2023-04-09T16:04:52.083Z,102059.63
2023-04-09T16:10:14.954Z,102066.03
2023-04-09T16:15:36.805Z,102049.16
2023-04-09T16:20:58.741Z,102045.13
2023-04-09T16:26:20.980Z,102060.41
2023-04-09T16:31:42.958Z,102054.00
2023-04-09T16:37:04.901Z,102044.75
2023-04-09T16:42:27.622Z,102038.94
2023-04-09T16:47:51.955Z,102037.91
2023-04-09T16:53:15.295Z,102037.06
2023-04-09T16:58:38.035Z,102035.13
2023-04-09T17:04:02.713Z,102032.81
2023-04-09T17:09:25.459Z,102023.53
2023-04-09T17:14:47.453Z,102028.97
2023-04-09T17:20:09.853Z,102025.38
2023-04-09T17:25:31.778Z,102036.56
2023-04-09T17:30:53.671Z,102031.50
2023-04-09T17:36:18.786Z,102031.72
2023-04-09T17:41:40.825Z,102031.56
2023-04-09T17:47:03.157Z,102027.53
2023-04-09T17:52:25.175Z,102035.94
2023-04-09T17:57:47.042Z,102024.88
2023-04-09T18:03:09.809Z,102028.56
2023-04-09T18:08:31.903Z,102029.88
2023-04-09T18:13:53.784Z,102030.53
2023-04-09T18:19:15.843Z,102031.91
2023-04-09T18:24:37.673Z,102029.44
2023-04-09T18:29:59.716Z,102036.22
2023-04-09T18:35:21.639Z,102044.22
2023-04-09T18:40:44.712Z,102045.34
2023-04-09T18:46:07.088Z,102050.41
2023-04-09T18:51:29.013Z,102048.56
2023-04-09T18:56:50.917Z,102044.47
2023-04-09T19:02:13.176Z,102051.84
2023-04-09T19:07:35.192Z,102045.66
2023-04-09T19:12:57.011Z,102042.44
2023-04-09T19:18:19.022Z,102041.63
2023-04-09T19:23:41.511Z,102035.84
2023-04-09T19:29:05.530Z,102049.34
2023-04-09T19:34:27.398Z,102052.53
2023-04-09T19:39:49.427Z,102045.84
2023-04-09T19:45:11.907Z,102044.16
2023-04-09T19:50:38.162Z,102044.63
2023-04-09T19:56:00.009Z,102040.38
2023-04-09T20:01:22.203Z,102048.16
2023-04-09T20:06:44.999Z,102043.88
2023-04-09T20:12:08.983Z,102042.19
2023-04-09T20:17:30.880Z,102040.50
2023-04-09T20:22:56.639Z,102032.63
2023-04-09T20:28:18.663Z,102026.88
2023-04-09T20:33:40.788Z,102023.38
2023-04-09T20:39:02.798Z,102017.66
2023-04-09T20:44:25.183Z,102014.97
2023-04-09T20:49:47.636Z,102002.88
2023-04-09T20:55:09.683Z,102005.53
2023-04-09T21:00:31.503Z,102008.16
2023-04-09T21:05:53.389Z,102005.22
2023-04-09T21:11:15.701Z,102011.50
2023-04-09T21:16:37.761Z,102012.84
2023-04-09T21:21:59.648Z,102010.53
2023-04-09T21:27:21.569Z,102011.47
2023-04-09T21:32:43.441Z,102010.25
2023-04-09T21:38:05.498Z,102005.63
2023-04-09T21:43:30.614Z,102006.78
2023-04-09T21:48:53.020Z,102001.06
2023-04-09T21:54:15.097Z,101995.13
2023-04-09T21:59:37.558Z,101995.81
2023-04-09T22:05:00.413Z,101995.66
2023-04-09T22:10:22.983Z,101987.41
2023-04-09T22:15:44.802Z,101995.81
2023-04-09T22:21:07.118Z,102004.03
2023-04-09T22:26:29.145Z,101987.44
2023-04-09T22:31:50.997Z,101988.34
2023-04-09T22:37:13.828Z,101989.03
2023-04-09T22:42:35.616Z,101994.22
2023-04-09T22:47:57.976Z,101991.88
2023-04-09T22:53:20.005Z,101983.41
2023-04-09T22:58:42.040Z,101989.63
2023-04-09T23:04:04.119Z,101990.91
2023-04-09T23:09:26.012Z,102005.72
2023-04-09T23:14:49.387Z,102010.91
2023-04-09T23:20:13.925Z,102028.84
2023-04-09T23:25:36.086Z,102012.66
2023-04-09T23:30:57.917Z,102002.00
2023-04-09T23:36:19.751Z,101992.22
2023-04-09T23:41:41.779Z,101980.69
2023-04-09T23:47:06.069Z,101980.06
2023-04-09T23:52:28.032Z,101975.19
2023-04-09T23:57:49.915Z,101970.13
